Time;durP1;ratioP1;P1;durP2;ratioP2;P2;SDS_P1;SDS_P2;PMS_P1;PMS_P2;Temp;Humidity;BMP_temperature;BMP_pressure;BME280_temperature;BME280_humidity;BME280_pressure;Samples;Min_cycle;Max_cycle;Signal;HPM_P1;HPM_P2
2023/04/03 00:02:02;;;;;;;3.40;1.25;;;;;;;-146.27;50.26;83617.78;5084187;28;20461;-68
2023/04/03 00:04:28;;;;;;;2.05;1.23;;;;;;;-146.27;49.01;83653.94;5091602;28;20485;-67
2023/04/03 00:06:53;;;;;;;1.95;1.02;;;;;;;-146.27;49.32;83617.78;5087434;28;20020;-68
2023/04/03 00:09:18;;;;;;;1.52;1.10;;;;;;;-146.27;50.49;83631.84;5076205;28;20083;-68
2023/04/03 00:11:45;;;;;;;3.15;1.30;;;;;;;-146.27;49.48;83617.78;5077941;28;20061;-67
2023/04/03 00:14:10;;;;;;;2.50;1.20;;;;;;;-146.27;49.28;83653.94;5076526;28;20020;-67
2023/04/03 00:16:36;;;;;;;6.18;1.20;;;;;;;-146.27;49.22;83662.00;5092226;28;20076;-68
2023/04/03 00:19:01;;;;;;;2.92;0.95;;;;;;;-146.27;50.00;83674.03;5090454;28;20012;-68
2023/04/03 00:21:27;;;;;;;4.10;1.20;;;;;;;-146.27;50.45;83680.06;5090869;28;20456;-68
2023/04/03 00:23:52;;;;;;;2.13;1.17;;;;;;;-146.27;50.45;83649.94;5084821;28;20046;-68
2023/04/03 00:26:17;;;;;;;4.90;1.10;;;;;;;-146.27;50.09;83700.16;5082386;28;20503;-68
2023/04/03 00:28:43;;;;;;;3.90;1.50;;;;;;;-146.27;51.50;83706.19;5081937;28;20158;-68
2023/04/03 00:31:08;;;;;;;1.65;1.17;;;;;;;-146.27;50.09;83690.13;5078650;28;20020;-68
2023/04/03 00:33:34;;;;;;;4.07;1.45;;;;;;;-146.27;50.20;83666.00;5081815;28;20024;-68
2023/04/03 00:35:59;;;;;;;1.83;0.90;;;;;;;-146.27;50.65;83672.03;5092805;28;20055;-68
2023/04/03 00:38:25;;;;;;;2.97;1.10;;;;;;;-146.27;51.86;83726.28;5083872;28;20090;-68
2023/04/03 00:40:50;;;;;;;3.40;1.17;;;;;;;-146.27;50.98;83746.38;5088812;28;20020;-68
2023/04/03 00:43:24;;;;;;;4.07;1.30;;;;;;;-146.27;50.10;83722.28;5083514;28;20032;-68
2023/04/03 00:45:52;;;;;;;2.40;1.17;;;;;;;-146.27;51.77;83686.09;5086446;28;20375;-68
2023/04/03 00:48:45;;;;;;;1.90;1.33;;;;;;;-146.27;49.52;83690.13;5085396;28;20535;-68
2023/04/03 00:51:14;;;;;;;3.65;1.65;;;;;;;-146.27;51.07;83716.25;5079160;28;20113;-68
2023/04/03 00:53:46;;;;;;;2.67;1.30;;;;;;;-146.27;49.81;83702.19;5085663;28;20024;-68
2023/04/03 00:56:15;;;;;;;2.53;1.33;;;;;;;-146.27;50.02;83730.31;5083617;28;20070;-69
2023/04/03 00:58:48;;;;;;;5.30;0.98;;;;;;;-146.27;50.39;83696.16;5079669;28;20437;-69
2023/04/03 01:01:19;;;;;;;2.58;1.30;;;;;;;-146.27;49.77;83774.53;5091509;28;20099;-69
2023/04/03 01:03:45;;;;;;;2.17;1.20;;;;;;;-146.27;51.21;83766.47;5087710;28;20031;-68
2023/04/03 01:06:10;;;;;;;2.10;1.30;;;;;;;-146.27;50.20;83770.50;5083503;28;20027;-69
2023/04/03 01:08:36;;;;;;;3.92;1.60;;;;;;;-146.27;50.11;83734.31;5079236;28;20036;-68
2023/04/03 01:11:01;;;;;;;1.25;0.95;;;;;;;-146.27;50.57;83734.31;5080217;28;20390;-68
2023/04/03 01:13:32;;;;;;;5.07;1.58;;;;;;;-146.27;51.70;83770.50;5085017;28;20023;-68
2023/04/03 01:16:02;;;;;;;5.72;1.27;;;;;;;-146.27;51.38;83774.53;5079212;28;20464;-66
2023/04/03 01:18:27;;;;;;;2.67;1.08;;;;;;;-146.27;52.42;83822.75;5077548;28;20028;-67
2023/04/03 01:21:36;;;;;;;7.35;1.70;;;;;;;-146.27;52.27;83806.66;5086636;28;20024;-67
2023/04/03 01:24:23;;;;;;;3.17;1.05;;;;;;;-146.27;52.15;83792.59;5076095;28;20048;-67
2023/04/03 01:26:50;;;;;;;1.40;1.00;;;;;;;-146.27;52.58;83806.66;5079292;28;20039;-67
2023/04/03 01:29:15;;;;;;;1.95;1.17;;;;;;;-146.27;52.16;83832.78;5084263;28;20078;-66
2023/04/03 01:31:46;;;;;;;2.20;1.20;;;;;;;-146.27;52.17;83772.50;5090603;28;20691;-68
2023/04/03 01:34:12;;;;;;;2.63;1.48;;;;;;;-146.27;52.87;83782.56;5087416;28;20038;-67
2023/04/03 01:36:37;;;;;;;3.25;1.50;;;;;;;-146.27;52.79;83808.69;5089708;28;20016;-67
2023/04/03 01:39:03;;;;;;;3.67;1.33;;;;;;;-146.27;52.57;83814.72;5086069;28;20182;-68
2023/04/03 01:41:29;;;;;;;1.98;1.25;;;;;;;-146.27;52.98;83838.81;5084409;28;20111;-67
2023/04/03 01:43:54;;;;;;;2.22;1.30;;;;;;;-146.27;53.92;83832.78;5090950;28;20035;-67
2023/04/03 01:46:20;;;;;;;4.75;1.50;;;;;;;-146.27;52.44;83828.78;5078860;28;20025;-67
2023/04/03 01:48:46;;;;;;;3.70;1.23;;;;;;;-146.27;53.64;83822.75;5082810;28;20120;-67
2023/04/03 01:51:11;;;;;;;4.28;1.40;;;;;;;-146.27;53.11;83862.94;5083092;28;20446;-68
2023/04/03 01:53:37;;;;;;;2.10;1.40;;;;;;;-146.27;54.79;83840.84;5079203;28;20092;-67
2023/04/03 01:56:02;;;;;;;6.53;1.70;;;;;;;-146.27;53.23;83818.72;5080889;28;20032;-67
2023/04/03 01:58:28;;;;;;;2.55;1.50;;;;;;;-146.27;53.82;83879.00;5077604;28;20090;-67
2023/04/03 02:00:54;;;;;;;2.40;1.10;;;;;;;-146.27;53.94;83834.81;5085002;28;20367;-67
2023/04/03 02:03:20;;;;;;;3.33;1.50;;;;;;;-146.27;53.98;83810.69;5081120;28;20480;-68
2023/04/03 02:05:45;;;;;;;4.03;1.48;;;;;;;-146.27;54.02;83848.88;5091850;28;20110;-67
2023/04/03 02:08:11;;;;;;;4.07;1.30;;;;;;;-146.27;53.54;83854.91;5088101;28;20379;-67
2023/04/03 02:10:36;;;;;;;2.80;1.20;;;;;;;-146.27;53.76;83830.78;5081026;28;20145;-67
2023/04/03 02:13:01;;;;;;;4.32;1.60;;;;;;;-146.27;53.33;83842.84;5083135;28;20098;-67
2023/04/03 02:15:27;;;;;;;5.82;1.83;;;;;;;-146.27;54.67;83804.66;5073412;28;20107;-67
2023/04/03 02:17:52;;;;;;;3.55;1.77;;;;;;;-146.27;54.21;83887.06;5085746;28;20083;-67
2023/04/03 02:20:18;;;;;;;4.40;1.55;;;;;;;-146.27;53.51;83830.78;5091315;28;20036;-68
2023/04/03 02:22:43;;;;;;;2.55;1.30;;;;;;;-146.27;52.01;83814.72;5091442;28;20463;-67
2023/04/03 02:25:10;;;;;;;4.07;1.50;;;;;;;-146.27;52.64;83887.06;5085367;28;20020;-69
2023/04/03 02:27:36;;;;;;;2.88;1.33;;;;;;;-146.27;54.40;83919.19;5082621;28;20483;-68
2023/04/03 02:30:02;;;;;;;3.28;1.20;;;;;;;-146.27;53.25;83899.09;5090348;28;20020;-68
2023/04/03 02:32:27;;;;;;;1.42;1.08;;;;;;;-146.27;53.76;83909.16;5082663;28;20074;-68
2023/04/03 02:34:53;;;;;;;2.65;1.38;;;;;;;-146.27;53.65;83854.91;5089815;28;20032;-67
2023/04/03 02:37:18;;;;;;;2.67;0.90;;;;;;;-146.27;54.40;83911.16;5093099;28;20082;-68
2023/04/03 02:39:43;;;;;;;4.63;1.50;;;;;;;-146.27;56.41;83915.19;5089850;28;20024;-68
2023/04/03 02:42:09;;;;;;;4.18;1.27;;;;;;;-146.27;54.57;83895.09;5084328;28;20044;-68
2023/04/03 02:44:35;;;;;;;4.40;1.48;;;;;;;-146.27;54.96;83879.00;5093325;28;20498;-68
2023/04/03 02:47:00;;;;;;;3.75;1.45;;;;;;;-146.27;56.35;83929.25;5084356;28;20086;-68
2023/04/03 02:49:26;;;;;;;3.00;1.55;;;;;;;-146.27;53.08;83883.03;5082402;28;20104;-68
2023/04/03 02:51:51;;;;;;;5.20;1.50;;;;;;;-146.27;54.22;83899.09;5084118;28;20024;-67
2023/04/03 02:54:16;;;;;;;6.45;2.17;;;;;;;-146.27;57.02;83915.19;5090804;28;20063;-68
2023/04/03 02:56:42;;;;;;;2.70;1.35;;;;;;;-146.27;54.97;83921.22;5085830;28;20024;-67
2023/04/03 02:59:07;;;;;;;3.00;1.50;;;;;;;-146.27;55.89;83931.25;5080912;28;20040;-68
2023/04/03 03:01:33;;;;;;;3.92;1.52;;;;;;;-146.27;56.87;83903.13;5091000;28;20085;-67
2023/04/03 03:03:59;;;;;;;2.15;1.30;;;;;;;-146.27;55.84;83947.34;5090971;28;20050;-68
2023/04/03 03:06:24;;;;;;;6.82;1.55;;;;;;;-146.27;55.65;83925.22;5085375;28;20060;-68
2023/04/03 03:08:50;;;;;;;8.65;1.73;;;;;;;-146.27;56.12;83975.47;5084694;28;20135;-68
2023/04/03 03:11:15;;;;;;;3.25;1.65;;;;;;;-146.27;58.05;83931.25;5083560;28;20024;-68
2023/04/03 03:13:41;;;;;;;4.38;1.30;;;;;;;-146.27;57.41;83943.31;5094413;28;20023;-68
2023/04/03 03:16:06;;;;;;;2.15;1.45;;;;;;;-146.27;57.26;83947.34;5085115;28;20087;-68
2023/04/03 03:18:32;;;;;;;3.28;1.13;;;;;;;-146.27;57.19;83999.59;5086250;28;20020;-67
2023/04/03 03:21:00;;;;;;;2.33;1.42;;;;;;;-146.27;56.82;83975.47;5086135;28;20104;-68
2023/04/03 03:23:28;;;;;;;3.33;1.30;;;;;;;-146.27;58.02;83981.50;5083697;28;20028;-68
2023/04/03 03:26:01;;;;;;;6.88;1.95;;;;;;;-146.27;58.65;83947.34;5092778;28;20495;-68
2023/04/03 03:28:27;;;;;;;2.80;1.40;;;;;;;-146.27;57.54;83967.44;5093337;28;20066;-68
2023/04/03 03:30:53;;;;;;;2.70;1.45;;;;;;;-146.27;57.35;83933.28;5089783;28;20055;-68
2023/04/03 03:33:18;;;;;;;5.63;1.25;;;;;;;-146.27;57.98;83967.44;5094139;28;20028;-68
2023/04/03 03:35:44;;;;;;;3.45;1.50;;;;;;;-146.27;58.14;83961.41;5089942;28;20025;-68
2023/04/03 03:38:10;;;;;;;4.78;1.50;;;;;;;-146.27;58.47;83959.41;5092843;28;20052;-68
2023/04/03 03:40:35;;;;;;;2.35;1.40;;;;;;;-146.27;57.87;83997.56;5093346;28;20072;-67
2023/04/03 03:43:00;;;;;;;2.80;1.02;;;;;;;-146.27;58.68;83985.53;5080635;28;20040;-68
2023/04/03 03:45:26;;;;;;;4.07;1.55;;;;;;;-146.27;59.14;83967.44;5091429;28;20028;-68
2023/04/03 03:47:52;;;;;;;4.57;1.70;;;;;;;-146.27;58.45;84015.66;5092424;28;20038;-68
2023/04/03 03:50:17;;;;;;;6.30;1.80;;;;;;;-146.27;57.81;83995.56;5086315;28;20016;-68
2023/04/03 03:52:43;;;;;;;3.42;1.80;;;;;;;-146.27;58.41;84005.63;5092397;28;20090;-68
2023/04/03 03:55:08;;;;;;;3.78;1.65;;;;;;;-146.27;59.64;83991.56;5087390;28;20032;-68
2023/04/03 03:57:34;;;;;;;5.90;2.30;;;;;;;-146.27;58.72;84007.63;5087660;28;20178;-68
2023/04/03 03:59:59;;;;;;;5.30;1.67;;;;;;;-146.27;57.49;83993.56;5089514;28;20108;-68
2023/04/03 04:02:25;;;;;;;5.15;1.77;;;;;;;-146.27;59.83;84019.69;5080284;28;20027;-68
2023/04/03 04:04:50;;;;;;;3.35;2.03;;;;;;;-146.27;58.63;84051.84;5093374;28;20521;-68
2023/04/03 04:07:16;;;;;;;2.88;1.55;;;;;;;-146.27;58.62;84051.84;5093293;28;20119;-68
2023/04/03 04:09:41;;;;;;;3.05;1.70;;;;;;;-146.27;59.05;84035.75;5081953;28;20119;-68
2023/04/03 04:12:06;;;;;;;6.90;1.77;;;;;;;-146.27;61.26;84031.75;5091637;28;20032;-67
2023/04/03 04:14:32;;;;;;;3.72;2.03;;;;;;;-146.27;59.74;84067.91;5086308;28;20056;-67
2023/04/03 04:16:57;;;;;;;3.80;1.63;;;;;;;-146.27;62.17;84090.03;5082077;28;20407;-67
2023/04/03 04:19:23;;;;;;;6.05;2.00;;;;;;;-146.27;59.84;84043.81;5084098;28;20045;-68
2023/04/03 04:21:48;;;;;;;2.35;1.45;;;;;;;-146.27;59.98;84039.78;5090194;28;20106;-68
2023/04/03 04:24:13;;;;;;;5.00;1.65;;;;;;;-146.27;60.22;84084.00;5091437;28;20028;-68
2023/04/03 04:26:39;;;;;;;3.10;1.70;;;;;;;-146.27;61.62;84053.84;5082961;28;20051;-68
2023/04/03 04:29:04;;;;;;;4.38;1.90;;;;;;;-146.27;60.17;84088.00;5082933;28;20021;-68
2023/04/03 04:31:30;;;;;;;4.32;2.10;;;;;;;-146.27;59.89;84047.81;5080252;28;20036;-68
2023/04/03 04:33:55;;;;;;;2.53;1.63;;;;;;;-146.27;60.62;84059.88;5079497;28;20032;-68
2023/04/03 04:36:20;;;;;;;3.47;1.65;;;;;;;-146.27;60.26;84059.88;5086599;28;20034;-68
2023/04/03 04:38:46;;;;;;;3.25;1.83;;;;;;;-146.27;60.22;84112.13;5089008;28;20072;-68
2023/04/03 04:41:11;;;;;;;4.63;2.17;;;;;;;-146.27;61.00;84096.06;5081474;28;20085;-68
2023/04/03 04:43:37;;;;;;;8.00;1.35;;;;;;;-146.27;61.29;84037.78;5079822;28;20032;-68
2023/04/03 04:46:08;;;;;;;4.72;1.65;;;;;;;-146.27;60.37;84063.91;5080952;28;20099;-68
2023/04/03 04:48:34;;;;;;;4.45;2.25;;;;;;;-146.27;60.32;84079.97;5078826;28;20064;-69
2023/04/03 04:51:00;;;;;;;8.77;2.53;;;;;;;-146.27;61.20;84065.91;5085474;28;20028;-68
2023/04/03 04:53:25;;;;;;;4.53;2.00;;;;;;;-146.27;60.04;84104.09;5078565;28;20058;-68
2023/04/03 04:55:51;;;;;;;6.13;2.20;;;;;;;-146.27;61.51;84116.16;5084818;28;20031;-68
2023/04/03 04:58:17;;;;;;;5.57;2.13;;;;;;;-146.27;61.10;84088.00;5082608;28;20032;-67
2023/04/03 05:00:43;;;;;;;7.18;1.83;;;;;;;-146.27;61.62;84128.22;5084674;28;20377;-67
2023/04/03 05:03:08;;;;;;;5.57;2.05;;;;;;;-146.27;61.79;84122.19;5081941;28;20024;-68
2023/04/03 05:05:35;;;;;;;9.55;2.67;;;;;;;-146.27;62.34;84138.25;5085802;28;20036;-67
2023/04/03 05:08:01;;;;;;;5.07;2.00;;;;;;;-146.27;63.21;84144.28;5085018;28;20081;-69
2023/04/03 05:10:26;;;;;;;4.20;1.80;;;;;;;-146.27;62.79;84114.13;5087441;28;20170;-69
2023/04/03 05:12:51;;;;;;;7.05;2.08;;;;;;;-146.27;64.60;84110.13;5084529;28;20016;-69
2023/04/03 05:15:17;;;;;;;8.00;2.25;;;;;;;-146.27;64.08;84108.09;5081555;28;20032;-70
2023/04/03 05:17:42;;;;;;;5.72;2.40;;;;;;;-146.27;63.46;84063.91;5076468;28;20027;-70
2023/04/03 05:20:08;;;;;;;5.93;2.30;;;;;;;-146.27;63.41;84140.25;5075286;28;20036;-70
2023/04/03 05:22:33;;;;;;;4.18;2.35;;;;;;;-146.27;63.66;84148.31;5082083;28;20031;-70
2023/04/03 05:24:59;;;;;;;8.10;2.70;;;;;;;-146.27;63.19;84096.06;5085247;28;20032;-70
2023/04/03 05:27:24;;;;;;;5.22;2.10;;;;;;;-146.27;63.83;84112.13;5085881;28;20076;-70
2023/04/03 05:29:52;;;;;;;4.40;2.47;;;;;;;-146.27;63.51;84088.00;5087201;28;20111;-70
2023/04/03 05:32:17;;;;;;;5.18;2.33;;;;;;;-146.27;63.71;84098.06;5086471;28;20024;-70
2023/04/03 05:34:43;;;;;;;8.38;2.40;;;;;;;-146.27;63.16;84120.16;5083582;28;20468;-68
2023/04/03 05:37:08;;;;;;;5.28;2.40;;;;;;;-146.27;64.06;84124.19;5078416;28;20020;-69
2023/04/03 05:39:33;;;;;;;7.55;2.30;;;;;;;-146.27;63.93;84148.31;5083648;28;20028;-68
2023/04/03 05:41:59;;;;;;;4.50;2.25;;;;;;;-146.27;65.35;84118.16;5092257;28;20071;-68
2023/04/03 05:44:25;;;;;;;3.35;1.77;;;;;;;-146.27;64.10;84106.09;5082319;28;20028;-69
2023/04/03 05:46:50;;;;;;;2.80;2.08;;;;;;;-146.27;63.12;84051.84;5083288;28;20134;-68
2023/04/03 05:49:16;;;;;;;5.10;1.95;;;;;;;-146.27;64.34;84114.13;5084053;28;20031;-69
2023/04/03 05:51:41;;;;;;;4.07;2.40;;;;;;;-146.27;63.98;84112.13;5080560;28;20471;-69
2023/04/03 05:54:19;;;;;;;7.55;2.50;;;;;;;-146.27;63.36;84067.91;5081447;28;20122;-68
2023/04/03 05:56:45;;;;;;;4.40;2.13;;;;;;;-146.27;63.91;84120.16;5082030;28;20037;-68
2023/04/03 05:59:10;;;;;;;4.05;2.40;;;;;;;-146.27;62.23;84100.06;5080010;28;20099;-68
2023/04/03 06:01:36;;;;;;;6.07;2.10;;;;;;;-146.27;62.21;84057.88;5092314;28;20158;-67
2023/04/03 06:04:02;;;;;;;5.18;2.33;;;;;;;-146.27;63.73;84059.88;5093525;28;20024;-67
2023/04/03 06:06:51;;;;;;;5.22;2.42;;;;;;;-146.27;62.09;84043.81;5089275;28;20016;-68
2023/04/03 06:09:17;;;;;;;7.28;2.05;;;;;;;-146.27;62.83;84043.81;5084766;28;20499;-68
2023/04/03 06:11:43;;;;;;;8.20;2.03;;;;;;;-146.27;62.12;84051.84;5089691;28;20096;-68
2023/04/03 06:14:09;;;;;;;7.63;3.22;;;;;;;-146.27;62.48;84051.84;5089309;28;20637;-68
2023/04/03 06:16:35;;;;;;;4.45;2.33;;;;;;;-146.27;62.20;84069.94;5077282;28;22678;-67
2023/04/03 06:19:00;;;;;;;5.20;2.10;;;;;;;-146.27;63.18;84039.78;5083833;28;20019;-69
2023/04/03 06:21:26;;;;;;;4.20;2.28;;;;;;;-146.27;62.21;84084.00;5095839;28;20506;-68
2023/04/03 06:23:52;;;;;;;9.02;2.38;;;;;;;-146.27;62.64;84104.09;5107378;28;20028;-69
2023/04/03 06:26:17;;;;;;;9.98;2.38;;;;;;;-146.27;62.48;83995.56;5080538;28;20433;-68
2023/04/03 06:28:42;;;;;;;3.75;2.13;;;;;;;-146.27;61.92;84007.63;5087030;28;20475;-67
2023/04/03 06:31:08;;;;;;;4.50;1.88;;;;;;;-146.27;62.16;84053.84;5080418;28;20025;-67
2023/04/03 06:33:34;;;;;;;5.32;2.35;;;;;;;-146.27;61.29;83983.50;5088028;28;20024;-68
2023/04/03 06:36:03;;;;;;;6.22;2.33;;;;;;;-146.27;60.17;83995.56;5087966;28;20020;-68
2023/04/03 06:38:29;;;;;;;4.30;2.20;;;;;;;-146.27;60.81;83983.50;5090861;28;20017;-69
2023/04/03 06:40:54;;;;;;;9.10;2.75;;;;;;;-146.27;61.18;84007.63;5081652;28;20038;-68
2023/04/03 06:43:20;;;;;;;5.93;2.38;;;;;;;-146.27;59.28;83923.22;5085065;28;20027;-68
2023/04/03 06:45:46;;;;;;;9.23;2.60;;;;;;;-146.27;58.69;83955.38;5093744;28;20120;-68
2023/04/03 06:48:12;;;;;;;7.82;2.40;;;;;;;-146.27;59.50;83991.56;5094020;28;20081;-68
2023/04/03 06:50:38;;;;;;;4.70;2.50;;;;;;;-146.27;59.82;83983.50;5082048;28;20025;-68
2023/04/03 06:53:03;;;;;;;4.93;2.42;;;;;;;-146.27;59.25;83949.34;5082530;28;20047;-72
2023/04/03 06:55:29;;;;;;;5.57;1.73;;;;;;;-146.27;59.82;83997.56;5080976;28;20088;-71
2023/04/03 06:57:55;;;;;;;6.47;3.25;;;;;;;-146.27;59.67;83971.47;5090881;28;20012;-70
2023/04/03 07:00:20;;;;;;;6.28;2.30;;;;;;;-146.27;59.72;83915.19;5086167;28;20024;-71
2023/04/03 07:02:46;;;;;;;4.45;2.00;;;;;;;-146.27;57.58;83883.03;5090627;28;20094;-71
2023/04/03 07:05:12;;;;;;;4.05;2.05;;;;;;;-146.27;56.35;83879.00;5079492;28;20111;-72
2023/04/03 07:07:38;;;;;;;6.70;2.20;;;;;;;-146.27;56.40;83866.97;5094452;28;20048;-72
2023/04/03 07:10:06;;;;;;;6.10;2.50;;;;;;;-146.27;57.83;83925.22;5093553;28;20060;-70
2023/04/03 07:12:31;;;;;;;4.72;2.15;;;;;;;-146.27;57.04;83959.41;5077800;28;20059;-70
2023/04/03 07:14:57;;;;;;;12.43;2.65;;;;;;;-146.27;55.60;83887.06;5090305;28;20107;-69
2023/04/03 07:17:22;;;;;;;8.07;1.83;;;;;;;-146.27;55.28;83893.06;5086753;28;20112;-69
2023/04/03 07:19:48;;;;;;;3.83;1.83;;;;;;;-146.27;56.31;83947.34;5080221;28;20032;-71
2023/04/03 07:22:13;;;;;;;13.88;2.05;;;;;;;-146.27;54.06;83860.94;5080000;28;20028;-72
2023/04/03 07:24:39;;;;;;;5.75;2.08;;;;;;;-146.27;55.63;83854.91;5092418;28;20040;-71
2023/04/03 07:27:05;;;;;;;4.82;1.88;;;;;;;-146.27;54.57;83860.94;5086530;28;20020;-71
2023/04/03 07:29:31;;;;;;;5.18;2.17;;;;;;;-146.27;54.90;83931.25;5081154;28;20025;-70
2023/04/03 07:31:57;;;;;;;7.35;2.10;;;;;;;-146.27;55.43;83929.25;5079345;28;20384;-69
2023/04/03 07:34:22;;;;;;;4.22;1.80;;;;;;;-146.27;54.99;83877.00;5089199;28;20182;-69
2023/04/03 07:36:48;;;;;;;8.68;2.15;;;;;;;-146.27;53.72;83854.91;5091427;28;20106;-69
2023/04/03 07:39:13;;;;;;;5.72;2.20;;;;;;;-146.27;52.74;83877.00;5081113;28;20023;-69
2023/04/03 07:41:39;;;;;;;4.50;2.08;;;;;;;-146.27;53.10;83828.78;5089192;28;20028;-69
2023/04/03 07:44:05;;;;;;;8.95;1.95;;;;;;;-146.27;52.17;83824.75;5094026;28;20092;-69
2023/04/03 07:46:31;;;;;;;6.30;1.90;;;;;;;-146.27;53.15;83846.84;5094060;28;20050;-69
2023/04/03 07:48:56;;;;;;;4.43;1.70;;;;;;;-146.27;52.20;83750.41;5082633;28;20028;-69
2023/04/03 07:51:22;;;;;;;3.78;2.10;;;;;;;-146.27;51.88;83760.44;5093414;28;20035;-69
2023/04/03 07:53:48;;;;;;;3.20;1.90;;;;;;;-146.27;51.58;83774.53;5088663;28;20028;-68
2023/04/03 07:56:13;;;;;;;6.50;2.03;;;;;;;-146.27;54.18;83862.94;5074086;28;20376;-69
2023/04/03 07:58:39;;;;;;;5.97;2.20;;;;;;;-146.27;50.45;83726.28;5073521;28;20017;-69
2023/04/03 08:01:05;;;;;;;5.65;2.03;;;;;;;-146.27;50.77;83754.44;5088374;28;20331;-69
2023/04/03 08:03:31;;;;;;;4.78;1.98;;;;;;;-146.27;49.79;83722.28;5085849;28;20647;-69
2023/04/03 08:06:03;;;;;;;4.22;1.85;;;;;;;-146.27;49.39;83722.28;5092502;28;20099;-69
2023/04/03 08:08:29;;;;;;;5.53;2.05;;;;;;;-146.27;50.23;83718.25;5091286;28;20344;-69
2023/04/03 08:10:59;;;;;;;4.68;1.60;;;;;;;-146.27;50.09;83694.13;5073083;28;20036;-69
2023/04/03 08:13:24;;;;;;;5.18;1.80;;;;;;;-146.27;48.70;83645.91;5092419;28;20580;-69
2023/04/03 08:15:50;;;;;;;4.15;1.60;;;;;;;-146.27;49.09;83728.31;5091178;28;20067;-70
2023/04/03 08:18:16;;;;;;;4.22;1.52;;;;;;;-146.27;48.79;83752.41;5086349;28;20024;-69
2023/04/03 08:20:42;;;;;;;5.53;1.85;;;;;;;-146.27;48.14;83585.63;5080831;28;20028;-69
2023/04/03 08:23:08;;;;;;;4.20;1.83;;;;;;;-146.27;49.17;83668.00;5086572;28;20475;-69
2023/04/03 08:25:38;;;;;;;3.78;1.73;;;;;;;-146.27;48.70;83621.81;5086802;28;20028;-68
2023/04/03 08:28:03;;;;;;;4.20;1.98;;;;;;;-146.27;46.82;83601.72;5089716;28;20376;-69
2023/04/03 08:30:29;;;;;;;5.75;1.70;;;;;;;-146.27;47.06;83577.59;5078684;28;20032;-69
2023/04/03 08:32:54;;;;;;;5.80;1.75;;;;;;;-146.27;47.68;83571.56;5078846;28;20020;-69
2023/04/03 08:35:20;;;;;;;11.15;2.22;;;;;;;-146.27;47.89;83579.59;5085032;28;20066;-69
2023/04/03 08:37:45;;;;;;;3.05;1.83;;;;;;;-146.27;47.22;83557.50;5089498;28;20475;-69
2023/04/03 08:40:14;;;;;;;16.45;2.28;;;;;;;-146.27;48.08;83605.72;5086585;28;20059;-69
2023/04/03 08:42:46;;;;;;;7.20;2.03;;;;;;;-146.27;46.71;83513.28;5080021;28;20081;-70
2023/04/03 08:45:21;;;;;;;8.32;2.03;;;;;;;-146.27;45.60;83479.13;5088018;28;20429;-69
2023/04/03 08:48:00;;;;;;;7.35;2.20;;;;;;;-146.27;43.22;83529.38;5085697;28;20547;-70
2023/04/03 08:50:35;;;;;;;4.40;1.58;;;;;;;-146.27;44.75;83497.22;5088531;28;20071;-68
2023/04/03 08:53:03;;;;;;;4.18;1.60;;;;;;;-146.27;44.45;83491.19;5090298;28;20471;-69
2023/04/03 08:55:33;;;;;;;3.55;1.65;;;;;;;-146.27;43.40;83380.69;5090772;28;20460;-70
2023/04/03 08:58:02;;;;;;;3.80;2.08;;;;;;;-146.27;42.77;83440.94;5083197;28;20520;-71
2023/04/03 09:00:34;;;;;;;6.38;1.80;;;;;;;-146.27;42.76;83404.78;5086878;28;20071;-68
2023/04/03 09:03:00;;;;;;;6.20;1.70;;;;;;;-146.27;42.36;83340.50;5084654;28;20487;-69
2023/04/03 09:06:06;;;;;;;4.82;1.73;;;;;;;-146.27;41.51;83300.31;5079717;28;20032;-69
2023/04/03 09:08:46;;;;;;;4.35;1.52;;;;;;;-146.27;42.71;83386.69;5068058;28;20032;-69
2023/04/03 09:12:09;;;;;;;5.00;1.50;;;;;;;-146.27;41.84;83302.31;5084347;28;20050;-69
2023/04/03 09:15:20;;;;;;;4.40;1.70;;;;;;;-146.27;41.37;83252.09;5087002;28;20035;-71
2023/04/03 09:18:15;;;;;;;5.40;1.25;;;;;;;-146.27;40.35;83284.22;5066415;28;20044;-71
2023/04/03 09:20:59;;;;;;;7.63;1.55;;;;;;;-146.27;39.70;83187.78;5077854;28;20024;-72
2023/04/03 09:23:33;;;;;;;4.28;1.48;;;;;;;-146.27;40.10;83232.00;5087791;28;20434;-70
2023/04/03 09:26:14;;;;;;;3.80;1.42;;;;;;;-146.27;38.96;83137.56;5088155;28;20028;-70
2023/04/03 09:28:42;;;;;;;3.03;1.20;;;;;;;-146.27;37.19;83083.31;5091161;28;20092;-70
2023/04/03 09:31:23;;;;;;;7.20;1.33;;;;;;;-146.27;37.02;83155.63;5089076;28;20036;-70
2023/04/03 09:33:52;;;;;;;4.15;1.27;;;;;;;-146.27;34.16;83087.31;5085066;28;20027;-71
2023/04/03 09:36:47;;;;;;;3.50;1.30;;;;;;;-146.27;36.20;83159.66;5088364;28;20112;-71
2023/04/03 09:39:21;;;;;;;2.63;1.45;;;;;;;-146.27;34.62;83029.06;5087322;28;20036;-71
2023/04/03 09:42:12;;;;;;;4.63;0.80;;;;;;;-146.27;33.50;83027.06;5091661;28;20024;-71
2023/04/03 09:44:38;;;;;;;1.88;0.80;;;;;;;-146.27;30.91;83073.25;5106007;28;20031;-71
2023/04/03 09:47:19;;;;;;;2.95;0.73;;;;;;;-146.27;29.75;83004.94;5093703;28;20483;-71
2023/04/03 09:49:44;;;;;;;2.60;0.60;;;;;;;-146.27;28.86;82926.59;5096124;28;20104;-73
2023/04/03 09:52:23;;;;;;;1.00;0.70;;;;;;;-146.27;28.26;82986.88;5085397;28;20467;-71
2023/04/03 09:54:48;;;;;;;2.60;0.80;;;;;;;-146.27;28.43;82958.75;5092611;28;20032;-71
2023/04/03 09:57:14;;;;;;;1.35;0.60;;;;;;;-146.27;28.33;82870.34;5094295;28;20077;-70
2023/04/03 10:00:01;;;;;;;3.40;0.50;;;;;;;-146.27;26.78;82920.56;5096080;28;20031;-72
2023/04/03 10:02:34;;;;;;;2.53;0.80;;;;;;;-146.27;26.48;82902.50;5091490;28;20055;-71
2023/04/03 10:05:00;;;;;;;;;;;;;;;-146.27;26.17;82924.59;5096328;28;20108;-71
2023/04/03 10:07:36;;;;;;;1.30;0.52;;;;;;;-146.27;28.10;82894.47;5091917;28;19994;-69
2023/04/03 10:10:25;;;;;;;0.85;0.43;;;;;;;-146.27;26.98;82789.97;5094069;28;20451;-70
2023/04/03 10:13:18;;;;;;;1.90;0.57;;;;;;;-146.27;27.30;82765.88;5095126;28;20107;-71
2023/04/03 10:16:08;;;;;;;1.10;0.85;;;;;;;-146.27;26.55;82769.91;5095779;28;20028;-72
2023/04/03 10:18:40;;;;;;;2.38;0.95;;;;;;;-146.27;27.34;82761.84;5090918;28;20031;-71
2023/04/03 10:21:12;;;;;;;2.10;0.68;;;;;;;-146.27;27.01;82677.47;5092751;28;20024;-70
2023/04/03 10:24:01;;;;;;;3.03;0.70;;;;;;;-146.27;27.64;82701.59;5083119;28;20040;-71
2023/04/03 10:26:45;;;;;;;3.28;0.70;;;;;;;-146.27;26.52;82677.47;5089671;28;20036;-69
2023/04/03 10:29:32;;;;;;;1.67;0.68;;;;;;;-146.27;26.58;82619.22;5090870;28;20024;-71
2023/04/03 10:32:22;;;;;;;1.35;0.82;;;;;;;-146.27;26.50;82552.94;5094090;28;22094;-71
2023/04/03 10:34:57;;;;;;;2.20;0.65;;;;;;;-146.27;26.78;82597.13;5093883;28;20367;-73
2023/04/03 10:37:36;;;;;;;0.63;0.60;;;;;;;-146.27;25.71;82472.56;5093828;28;20130;-71
2023/04/03 10:40:23;;;;;;;1.17;0.88;;;;;;;-146.27;26.58;82432.41;5092923;28;20028;-71
2023/04/03 10:43:14;;;;;;;1.98;0.60;;;;;;;-146.27;26.01;82442.44;5095042;28;20425;-71
2023/04/03 10:45:58;;;;;;;2.38;0.80;;;;;;;-146.27;26.75;82398.25;5094320;28;20108;-70
2023/04/03 10:48:53;;;;;;;1.10;0.70;;;;;;;-146.27;25.79;82277.72;5094450;28;20074;-71
2023/04/03 10:51:47;;;;;;;2.92;0.70;;;;;;;-146.27;25.69;82396.25;5091648;28;20031;-69
2023/04/03 10:54:18;;;;;;;1.70;0.65;;;;;;;-146.27;25.92;82344.00;5090675;28;20137;-71
2023/04/03 10:56:46;;;;;;;1.15;0.63;;;;;;;-146.27;25.30;82231.53;5094067;28;20077;-71
2023/04/03 10:59:50;;;;;;;5.80;0.88;;;;;;;-146.27;24.81;82273.72;5084511;28;20027;-71
2023/04/03 11:02:37;;;;;;;2.40;0.50;;;;;;;-146.27;24.54;82396.25;5050246;28;20040;-70
2023/04/03 11:05:09;;;;;;;1.88;0.70;;;;;;;-146.27;24.90;82221.47;5075565;28;20461;-70
2023/04/03 11:07:47;;;;;;;2.95;0.52;;;;;;;-146.27;25.85;82219.47;5075002;28;20089;-72
2023/04/03 11:10:23;;;;;;;1.10;0.82;;;;;;;-146.27;25.50;82275.72;5082317;28;20123;-71
2023/04/03 11:12:54;;;;;;;0.95;0.60;;;;;;;-146.27;25.33;82050.75;5088190;28;20510;-71
2023/04/03 11:15:22;;;;;;;1.23;0.85;;;;;;;-146.27;25.67;82191.34;5081704;28;20102;-71
2023/04/03 11:17:58;;;;;;;1.77;0.52;;;;;;;-146.27;26.12;82054.75;5086764;28;20028;-71
2023/04/03 11:20:32;;;;;;;3.47;0.90;;;;;;;-146.27;24.00;82199.38;5086248;28;20033;-72
2023/04/03 11:23:03;;;;;;;3.03;0.70;;;;;;;-146.27;24.81;82086.91;5087208;28;20028;-72
2023/04/03 11:25:32;;;;;;;0.98;0.60;;;;;;;-146.27;24.70;82002.53;5090321;28;20168;-72
2023/04/03 11:28:06;;;;;;;1.73;0.75;;;;;;;-146.27;23.38;82006.53;5093321;28;20539;-71